Time;durP1;ratioP1;P1;durP2;ratioP2;P2;SDS_P1;SDS_P2;PMS_P1;PMS_P2;Temp;Humidity;BMP_temperature;BMP_pressure;BME280_temperature;BME280_humidity;BME280_pressure;Samples;Min_cycle;Max_cycle;Signal;HPM_P1;HPM_P2
2022/08/21 00:01:10;;;;;;;6.55;4.25;;;;;;;;;;5056524;28;20055;-58
2022/08/21 00:03:37;;;;;;;13.75;4.63;;;;;;;;;;5054291;28;20044;-59
2022/08/21 00:06:04;;;;;;;9.63;4.47;;;;;;;;;;5056701;27;20216;-59
2022/08/21 00:08:30;;;;;;;6.03;3.97;;;;;;;;;;5055849;28;20052;-59
2022/08/21 00:10:57;;;;;;;6.25;4.18;;;;;;;;;;5055935;28;20045;-58
2022/08/21 00:13:24;;;;;;;6.00;3.78;;;;;;;;;;5055325;28;21339;-59
2022/08/21 00:15:51;;;;;;;6.78;4.07;;;;;;;;;;5054906;28;20098;-59
2022/08/21 00:18:18;;;;;;;8.00;4.57;;;;;;;;;;5054336;28;20032;-58
2022/08/21 00:20:45;;;;;;;6.78;3.92;;;;;;;;;;5054226;28;20047;-58
2022/08/21 00:23:12;;;;;;;9.90;4.82;;;;;;;;;;5071720;28;20041;-59
2022/08/21 00:25:39;;;;;;;7.80;4.57;;;;;;;;;;5054798;27;20037;-58
2022/08/21 00:28:06;;;;;;;9.32;4.32;;;;;;;;;;5043357;28;20059;-59
2022/08/21 00:30:33;;;;;;;6.38;4.22;;;;;;;;;;5041338;28;20041;-60
2022/08/21 00:33:01;;;;;;;7.05;4.57;;;;;;;;;;5041345;28;20033;-59
2022/08/21 00:35:29;;;;;;;9.43;4.88;;;;;;;;;;5040870;28;20060;-59
2022/08/21 00:37:56;;;;;;;8.52;4.78;;;;;;;;;;5042612;28;20741;-60
2022/08/21 00:40:26;;;;;;;8.70;4.50;;;;;;;;;;5041255;28;20045;-60
2022/08/21 00:42:53;;;;;;;8.30;4.80;;;;;;;;;;5040333;28;20044;-59
2022/08/21 00:45:19;;;;;;;9.95;6.22;;;;;;;;;;5054386;28;20079;-60
2022/08/21 00:47:46;;;;;;;7.93;5.20;;;;;;;;;;5039670;28;20094;-59
2022/08/21 00:50:13;;;;;;;8.25;4.38;;;;;;;;;;5041411;28;20553;-60
2022/08/21 00:52:40;;;;;;;9.38;4.78;;;;;;;;;;5041397;28;20045;-59
2022/08/21 00:55:08;;;;;;;6.68;4.40;;;;;;;;;;5041606;28;20087;-57
2022/08/21 00:57:37;;;;;;;7.47;5.00;;;;;;;;;;5039496;28;20588;-59
2022/08/21 01:00:05;;;;;;;6.57;4.50;;;;;;;;;;5042697;28;20140;-59
2022/08/21 01:02:32;;;;;;;7.22;4.50;;;;;;;;;;5039952;28;20040;-59
2022/08/21 01:04:58;;;;;;;9.45;6.35;;;;;;;;;;5040356;28;20040;-59
2022/08/21 01:07:25;;;;;;;10.15;5.00;;;;;;;;;;5050830;28;20037;-59
2022/08/21 01:09:52;;;;;;;7.63;5.28;;;;;;;;;;5039174;28;20092;-60
2022/08/21 01:12:19;;;;;;;7.15;5.35;;;;;;;;;;5039500;28;20041;-60
2022/08/21 01:14:46;;;;;;;9.43;4.97;;;;;;;;;;5020676;28;20758;-60
2022/08/21 01:17:15;;;;;;;9.68;5.20;;;;;;;;;;5035368;28;20102;-59
2022/08/21 01:19:42;;;;;;;14.60;5.07;;;;;;;;;;5036359;28;20170;-57
2022/08/21 01:22:08;;;;;;;9.73;4.32;;;;;;;;;;5041050;28;20041;-59
2022/08/21 01:24:35;;;;;;;7.38;4.90;;;;;;;;;;5039534;28;20036;-60
2022/08/21 01:27:02;;;;;;;8.10;4.72;;;;;;;;;;5040880;28;21078;-59
2022/08/21 01:29:31;;;;;;;8.52;4.47;;;;;;;;;;5038107;28;20488;-60
2022/08/21 01:31:59;;;;;;;8.38;4.72;;;;;;;;;;5040299;28;20070;-59
2022/08/21 01:34:26;;;;;;;8.27;5.18;;;;;;;;;;5040338;28;20059;-60
2022/08/21 01:36:52;;;;;;;7.13;4.32;;;;;;;;;;5039485;28;20076;-59
2022/08/21 01:39:19;;;;;;;7.18;4.85;;;;;;;;;;5037976;28;20040;-59
2022/08/21 01:41:46;;;;;;;7.60;4.53;;;;;;;;;;5021141;28;20041;-59
2022/08/21 01:44:12;;;;;;;7.85;5.20;;;;;;;;;;5020787;28;20041;-60
2022/08/21 01:46:39;;;;;;;8.27;5.18;;;;;;;;;;5019526;28;20166;-59
2022/08/21 01:49:06;;;;;;;6.13;4.30;;;;;;;;;;5020608;28;20083;-59
2022/08/21 01:51:33;;;;;;;8.55;5.38;;;;;;;;;;5020004;28;20045;-59
2022/08/21 01:53:59;;;;;;;7.47;5.28;;;;;;;;;;5020374;28;20048;-60
2022/08/21 01:56:27;;;;;;;8.43;4.85;;;;;;;;;;5019159;28;20132;-59
2022/08/21 01:58:54;;;;;;;7.25;4.82;;;;;;;;;;5019483;28;20591;-59
2022/08/21 02:01:20;;;;;;;9.50;5.00;;;;;;;;;;5020531;28;20090;-59
2022/08/21 02:03:47;;;;;;;6.85;4.65;;;;;;;;;;5021123;28;20136;-60
2022/08/21 02:06:17;;;;;;;9.82;4.72;;;;;;;;;;5019843;28;20107;-60
2022/08/21 02:08:43;;;;;;;7.93;4.60;;;;;;;;;;5019689;28;20120;-60
2022/08/21 02:11:10;;;;;;;9.18;4.63;;;;;;;;;;5020778;28;20170;-60
2022/08/21 02:13:37;;;;;;;11.13;5.00;;;;;;;;;;5021013;28;20453;-59
2022/08/21 02:16:04;;;;;;;10.85;5.57;;;;;;;;;;5039490;28;20536;-59
2022/08/21 02:18:30;;;;;;;15.55;5.30;;;;;;;;;;5020882;28;20087;-59
2022/08/21 02:20:57;;;;;;;10.30;4.72;;;;;;;;;;5021231;28;20082;-59
2022/08/21 02:23:24;;;;;;;9.90;5.32;;;;;;;;;;5021696;28;20925;-58
2022/08/21 02:25:51;;;;;;;14.10;5.15;;;;;;;;;;5019603;28;20111;-59
2022/08/21 02:28:17;;;;;;;11.07;4.68;;;;;;;;;;5020084;28;20117;-59
2022/08/21 02:30:46;;;;;;;7.75;4.53;;;;;;;;;;5019474;28;20139;-59
2022/08/21 02:33:13;;;;;;;12.50;5.00;;;;;;;;;;5021669;28;20044;-59
2022/08/21 02:35:41;;;;;;;11.18;4.60;;;;;;;;;;5018858;28;20053;-59
2022/08/21 02:38:10;;;;;;;15.77;5.40;;;;;;;;;;5018221;28;20655;-58
2022/08/21 02:40:38;;;;;;;13.75;5.88;;;;;;;;;;5020695;28;20029;-58
2022/08/21 02:43:05;;;;;;;16.92;5.32;;;;;;;;;;5020664;28;20398;-58
2022/08/21 02:45:32;;;;;;;16.98;5.85;;;;;;;;;;5021643;28;20432;-59
2022/08/21 02:48:00;;;;;;;13.88;5.22;;;;;;;;;;5018990;28;20033;-59
2022/08/21 02:50:29;;;;;;;16.00;5.25;;;;;;;;;;5017535;28;20406;-59
2022/08/21 02:52:56;;;;;;;11.93;5.35;;;;;;;;;;5020519;28;20037;-57
2022/08/21 02:55:27;;;;;;;10.48;4.97;;;;;;;;;;5019807;28;20509;-59
2022/08/21 02:57:54;;;;;;;16.70;5.22;;;;;;;;;;5018552;28;20045;-59
2022/08/21 03:00:23;;;;;;;17.60;5.07;;;;;;;;;;5018454;28;20072;-59
2022/08/21 03:02:50;;;;;;;16.70;5.50;;;;;;;;;;5020843;28;20044;-59
2022/08/21 03:05:16;;;;;;;13.95;5.03;;;;;;;;;;5020242;28;20046;-59
2022/08/21 03:07:44;;;;;;;8.57;4.82;;;;;;;;;;5017691;28;20045;-58
2022/08/21 03:10:11;;;;;;;11.65;5.18;;;;;;;;;;5018956;28;20051;-59
2022/08/21 03:12:37;;;;;;;13.80;5.43;;;;;;;;;;5017204;28;20520;-59
2022/08/21 03:15:06;;;;;;;10.18;5.53;;;;;;;;;;5016754;28;21100;-59
2022/08/21 03:17:33;;;;;;;15.32;5.30;;;;;;;;;;5016293;28;20037;-59
2022/08/21 03:20:00;;;;;;;11.57;4.65;;;;;;;;;;5018797;28;20052;-59
2022/08/21 03:22:32;;;;;;;10.88;5.22;;;;;;;;;;5016296;28;20083;-58
2022/08/21 03:24:59;;;;;;;11.30;5.10;;;;;;;;;;5017887;28;20469;-58
2022/08/21 03:27:27;;;;;;;17.55;5.50;;;;;;;;;;5018361;28;20043;-59
2022/08/21 03:29:56;;;;;;;10.77;5.35;;;;;;;;;;5039163;28;20486;-58
2022/08/21 03:32:23;;;;;;;11.77;5.15;;;;;;;;;;5037551;28;20053;-59
2022/08/21 03:34:52;;;;;;;10.57;5.35;;;;;;;;;;5039779;28;20036;-58
2022/08/21 03:37:18;;;;;;;12.45;5.50;;;;;;;;;;5017718;28;20123;-57
2022/08/21 03:39:45;;;;;;;15.70;5.30;;;;;;;;;;5013471;28;20052;-58
2022/08/21 03:42:12;;;;;;;10.27;5.32;;;;;;;;;;5031696;28;20505;-58
2022/08/21 03:44:39;;;;;;;9.77;5.20;;;;;;;;;;5014946;28;20045;-57
2022/08/21 03:47:06;;;;;;;10.10;5.40;;;;;;;;;;5016166;28;20104;-57
2022/08/21 03:49:33;;;;;;;11.63;5.78;;;;;;;;;;5018748;28;20127;-57
2022/08/21 03:52:00;;;;;;;9.25;5.10;;;;;;;;;;5019653;28;20042;-59
2022/08/21 03:54:26;;;;;;;12.30;5.38;;;;;;;;;;5018437;28;20676;-59
2022/08/21 03:56:53;;;;;;;7.93;4.90;;;;;;;;;;5019283;28;20053;-58
2022/08/21 03:59:19;;;;;;;8.65;5.25;;;;;;;;;;5034206;28;20034;-57
2022/08/21 04:01:56;;;;;;;13.00;5.07;;;;;;;;;;5019020;28;20037;-56
2022/08/21 04:04:23;;;;;;;9.18;4.97;;;;;;;;;;5022734;28;20041;-60
2022/08/21 04:06:50;;;;;;;8.48;5.00;;;;;;;;;;5021262;28;20080;-59
2022/08/21 04:09:17;;;;;;;9.25;5.45;;;;;;;;;;5022463;28;20112;-59
2022/08/21 04:11:44;;;;;;;12.70;5.93;;;;;;;;;;5021129;28;20037;-59
2022/08/21 04:14:10;;;;;;;7.15;5.07;;;;;;;;;;5023044;28;20508;-59
2022/08/21 04:16:37;;;;;;;8.68;4.60;;;;;;;;;;5022133;28;20866;-60
2022/08/21 04:19:03;;;;;;;9.68;4.85;;;;;;;;;;5021156;28;20048;-59
2022/08/21 04:21:31;;;;;;;9.70;5.28;;;;;;;;;;5023735;28;20033;-58
2022/08/21 04:23:59;;;;;;;10.88;5.55;;;;;;;;;;5022844;28;20048;-59
2022/08/21 04:26:25;;;;;;;9.80;5.70;;;;;;;;;;5021866;28;20053;-58
2022/08/21 04:28:52;;;;;;;8.70;5.10;;;;;;;;;;5032075;28;20044;-59
2022/08/21 04:31:19;;;;;;;18.67;5.70;;;;;;;;;;5041589;28;20073;-58
2022/08/21 04:33:45;;;;;;;10.65;5.68;;;;;;;;;;5022031;28;20037;-59
2022/08/21 04:36:12;;;;;;;10.65;5.55;;;;;;;;;;5021600;28;20053;-57
2022/08/21 04:38:39;;;;;;;16.15;6.15;;;;;;;;;;5021062;28;20581;-58
2022/08/21 04:41:06;;;;;;;9.55;5.90;;;;;;;;;;5023448;28;20599;-58
2022/08/21 04:43:32;;;;;;;12.13;6.22;;;;;;;;;;5021346;28;20049;-58
2022/08/21 04:46:00;;;;;;;13.55;6.10;;;;;;;;;;5022540;28;20034;-58
2022/08/21 04:48:27;;;;;;;12.43;6.30;;;;;;;;;;5020406;28;20037;-60
2022/08/21 04:51:02;;;;;;;11.60;6.97;;;;;;;;;;5022611;28;20033;-60
2022/08/21 04:53:34;;;;;;;14.68;6.82;;;;;;;;;;5032451;28;20064;-58
2022/08/21 04:56:04;;;;;;;16.40;6.93;;;;;;;;;;5021723;28;20049;-58
2022/08/21 04:58:33;;;;;;;13.15;6.53;;;;;;;;;;5022138;28;20345;-58
2022/08/21 05:01:01;;;;;;;11.68;6.35;;;;;;;;;;5022087;28;20060;-59
2022/08/21 05:03:28;;;;;;;17.63;6.53;;;;;;;;;;5020067;28;20081;-59
2022/08/21 05:05:55;;;;;;;15.00;5.90;;;;;;;;;;5022055;28;20876;-59
2022/08/21 05:08:24;;;;;;;12.10;5.90;;;;;;;;;;5020913;28;20127;-60
2022/08/21 05:10:51;;;;;;;8.38;5.40;;;;;;;;;;5022934;28;20121;-59
2022/08/21 05:13:18;;;;;;;11.18;5.53;;;;;;;;;;5021099;28;20042;-60
2022/08/21 05:15:44;;;;;;;9.98;5.47;;;;;;;;;;5022056;28;20380;-59
2022/08/21 05:18:12;;;;;;;10.05;5.50;;;;;;;;;;5021127;28;20057;-58
2022/08/21 05:20:38;;;;;;;12.05;5.30;;;;;;;;;;5021666;28;20065;-59
2022/08/21 05:23:12;;;;;;;10.00;5.00;;;;;;;;;;5021898;28;20042;-59
2022/08/21 05:25:39;;;;;;;10.52;5.25;;;;;;;;;;5020866;28;20103;-58
2022/08/21 05:28:06;;;;;;;12.00;5.18;;;;;;;;;;5021539;28;20098;-60
2022/08/21 05:30:33;;;;;;;13.98;5.32;;;;;;;;;;5023011;28;20044;-58
2022/08/21 05:33:01;;;;;;;11.82;5.07;;;;;;;;;;5024177;28;20049;-58
2022/08/21 05:35:28;;;;;;;14.65;5.25;;;;;;;;;;5023123;28;20493;-57
2022/08/21 05:37:55;;;;;;;11.93;5.25;;;;;;;;;;5023328;28;20060;-59
2022/08/21 05:40:21;;;;;;;8.38;4.75;;;;;;;;;;5022360;28;20060;-60
2022/08/21 05:42:48;;;;;;;10.48;5.25;;;;;;;;;;5023452;28;20116;-58
2022/08/21 05:45:15;;;;;;;12.93;5.10;;;;;;;;;;5022798;28;20053;-59
2022/08/21 05:47:41;;;;;;;14.15;4.45;;;;;;;;;;5020032;28;20136;-60
2022/08/21 05:50:08;;;;;;;11.98;5.30;;;;;;;;;;5020988;28;20041;-59
2022/08/21 05:52:34;;;;;;;11.35;5.32;;;;;;;;;;5020984;28;20049;-58
2022/08/21 05:55:01;;;;;;;14.35;5.25;;;;;;;;;;5019902;28;20075;-59
2022/08/21 05:57:28;;;;;;;13.88;4.70;;;;;;;;;;5020052;28;20049;-59
2022/08/21 05:59:54;;;;;;;12.18;4.65;;;;;;;;;;5020396;28;20048;-59
2022/08/21 06:02:22;;;;;;;14.00;5.30;;;;;;;;;;5016135;28;20053;-59
2022/08/21 06:04:49;;;;;;;11.25;5.32;;;;;;;;;;5021038;28;20062;-59
2022/08/21 06:07:16;;;;;;;10.65;5.40;;;;;;;;;;5027842;28;20045;-59
2022/08/21 06:09:43;;;;;;;14.07;5.15;;;;;;;;;;5054826;28;20805;-60
2022/08/21 06:12:11;;;;;;;13.48;5.15;;;;;;;;;;5040491;28;20048;-59
2022/08/21 06:14:38;;;;;;;10.05;4.95;;;;;;;;;;5040172;28;20541;-60
2022/08/21 06:17:05;;;;;;;15.15;5.22;;;;;;;;;;5039668;28;20604;-59
2022/08/21 06:19:32;;;;;;;11.60;4.95;;;;;;;;;;5041207;28;20043;-60
2022/08/21 06:21:59;;;;;;;9.38;5.45;;;;;;;;;;5040921;28;20044;-60
2022/08/21 06:24:26;;;;;;;18.23;5.82;;;;;;;;;;5030435;28;20260;-60
2022/08/21 06:26:53;;;;;;;14.35;5.68;;;;;;;;;;5033428;28;20126;-60
2022/08/21 06:29:19;;;;;;;12.55;5.60;;;;;;;;;;5031681;28;20040;-59
2022/08/21 06:31:47;;;;;;;9.10;5.22;;;;;;;;;;5020009;28;20072;-60
2022/08/21 06:34:13;;;;;;;11.35;5.28;;;;;;;;;;5021924;28;20111;-59
2022/08/21 06:36:40;;;;;;;15.40;5.85;;;;;;;;;;5019806;28;20106;-59
2022/08/21 06:39:07;;;;;;;13.82;5.35;;;;;;;;;;5020673;28;20368;-60
2022/08/21 06:41:34;;;;;;;12.48;5.47;;;;;;;;;;5017438;28;20045;-60
2022/08/21 06:44:00;;;;;;;6.20;3.90;;;;;;;;;;5020163;28;20033;-60
2022/08/21 06:46:28;;;;;;;13.43;5.40;;;;;;;;;;5019668;28;20087;-59
2022/08/21 06:48:55;;;;;;;11.98;5.40;;;;;;;;;;5019139;28;20073;-59
2022/08/21 06:51:22;;;;;;;7.60;5.22;;;;;;;;;;5019514;28;20033;-59
2022/08/21 06:53:49;;;;;;;10.23;5.07;;;;;;;;;;5019628;28;20086;-59
2022/08/21 06:56:16;;;;;;;8.93;4.82;;;;;;;;;;5019621;28;20053;-59
2022/08/21 06:58:42;;;;;;;13.32;5.03;;;;;;;;;;5019920;28;20040;-58
2022/08/21 07:01:09;;;;;;;8.15;4.50;;;;;;;;;;5021522;28;20132;-57
2022/08/21 07:03:39;;;;;;;8.43;4.60;;;;;;;;;;5017941;28;20093;-58
2022/08/21 07:06:06;;;;;;;6.32;3.90;;;;;;;;;;5019200;28;20120;-59
2022/08/21 07:08:33;;;;;;;8.60;3.47;;;;;;;;;;5016367;28;20037;-58
2022/08/21 07:11:00;;;;;;;6.88;3.83;;;;;;;;;;5018701;28;20045;-58
2022/08/21 07:13:27;;;;;;;7.18;3.72;;;;;;;;;;5019476;28;20041;-59
2022/08/21 07:15:54;;;;;;;4.88;2.83;;;;;;;;;;5018879;28;21104;-58
2022/08/21 07:18:21;;;;;;;5.15;3.25;;;;;;;;;;5017390;28;20030;-59
2022/08/21 07:20:48;;;;;;;4.28;2.20;;;;;;;;;;5018122;28;20389;-58
2022/08/21 07:23:27;;;;;;;9.32;3.40;;;;;;;;;;5018586;28;20040;-59
2022/08/21 07:25:53;;;;;;;5.65;3.60;;;;;;;;;;5020106;28;20037;-59
2022/08/21 07:28:20;;;;;;;10.68;3.80;;;;;;;;;;5018154;28;20558;-58
2022/08/21 07:30:51;;;;;;;6.18;3.20;;;;;;;;;;5018861;28;20395;-59
2022/08/21 07:33:17;;;;;;;6.10;3.15;;;;;;;;;;5020957;28;20034;-60
2022/08/21 07:35:44;;;;;;;5.95;3.40;;;;;;;;;;5013285;28;20053;-60
2022/08/21 07:38:11;;;;;;;7.57;3.33;;;;;;;;;;5021676;28;20037;-59
2022/08/21 07:40:38;;;;;;;7.68;2.90;;;;;;;;;;5019665;28;20049;-59
2022/08/21 07:43:05;;;;;;;4.68;2.83;;;;;;;;;;5023464;28;20668;-59
2022/08/21 07:45:31;;;;;;;6.63;3.00;;;;;;;;;;5021258;28;20049;-60
2022/08/21 07:47:58;;;;;;;4.78;2.80;;;;;;;;;;5027509;28;20041;-60
2022/08/21 07:50:25;;;;;;;6.15;2.63;;;;;;;;;;5024020;28;20494;-60
2022/08/21 07:52:52;;;;;;;6.65;2.95;;;;;;;;;;5024000;28;20052;-60
2022/08/21 07:55:21;;;;;;;4.68;2.80;;;;;;;;;;5020866;28;20052;-60
2022/08/21 07:57:47;;;;;;;5.53;2.50;;;;;;;;;;5023555;28;20042;-60
2022/08/21 08:00:20;;;;;;;6.22;2.72;;;;;;;;;;5023508;28;20049;-59
2022/08/21 08:02:49;;;;;;;5.17;2.80;;;;;;;;;;5022891;28;20037;-60
2022/08/21 08:05:17;;;;;;;5.70;2.90;;;;;;;;;;5022747;28;20040;-60
2022/08/21 08:07:44;;;;;;;5.15;2.88;;;;;;;;;;5022132;28;20065;-59
2022/08/21 08:10:11;;;;;;;5.20;2.63;;;;;;;;;;5022363;28;20121;-59
2022/08/21 08:12:39;;;;;;;5.38;2.80;;;;;;;;;;5014785;28;20155;-58
2022/08/21 08:15:07;;;;;;;5.07;2.80;;;;;;;;;;5021673;28;20049;-60
2022/08/21 08:17:34;;;;;;;5.18;2.75;;;;;;;;;;5022131;28;20041;-58
2022/08/21 08:20:03;;;;;;;5.68;2.70;;;;;;;;;;5022695;28;20528;-60
2022/08/21 08:22:30;;;;;;;5.00;2.78;;;;;;;;;;5022530;28;20153;-59
2022/08/21 08:24:56;;;;;;;7.75;2.70;;;;;;;;;;5023156;28;20102;-57
2022/08/21 08:27:23;;;;;;;5.30;2.50;;;;;;;;;;5022261;28;20038;-58
2022/08/21 08:29:51;;;;;;;5.32;2.58;;;;;;;;;;5022422;28;20041;-58
2022/08/21 08:32:18;;;;;;;5.68;2.80;;;;;;;;;;5022951;28;20040;-59
2022/08/21 08:34:46;;;;;;;5.18;2.63;;;;;;;;;;5022412;28;20404;-60
2022/08/21 08:37:13;;;;;;;5.07;2.50;;;;;;;;;;5021480;28;20068;-61
2022/08/21 08:39:40;;;;;;;5.10;2.97;;;;;;;;;;5023149;28;20045;-58
2022/08/21 08:42:15;;;;;;;4.65;2.70;;;;;;;;;;5022890;28;20041;-59
2022/08/21 08:44:42;;;;;;;5.53;2.97;;;;;;;;;;5022148;28;20045;-59
2022/08/21 08:47:10;;;;;;;6.03;2.88;;;;;;;;;;5021585;28;21085;-58
2022/08/21 08:49:56;;;;;;;5.43;2.60;;;;;;;;;;5023379;28;20045;-60
2022/08/21 08:52:30;;;;;;;5.90;2.85;;;;;;;;;;5022766;28;20135;-58
2022/08/21 08:55:17;;;;;;;4.40;2.38;;;;;;;;;;5022245;28;20178;-59
2022/08/21 08:57:46;;;;;;;6.25;3.03;;;;;;;;;;5020026;28;20045;-60
2022/08/21 09:00:14;;;;;;;5.88;2.60;;;;;;;;;;5021552;28;20604;-59
2022/08/21 09:02:43;;;;;;;4.68;2.50;;;;;;;;;;5039113;28;20458;-58
2022/08/21 09:05:16;;;;;;;5.28;2.58;;;;;;;;;;5041270;28;21744;-58
2022/08/21 09:07:52;;;;;;;5.93;2.60;;;;;;;;;;5040162;28;20048;-58
2022/08/21 09:10:21;;;;;;;4.85;2.72;;;;;;;;;;5042646;28;20045;-60
2022/08/21 09:12:48;;;;;;;4.60;2.60;;;;;;;;;;5040440;28;20045;-58
2022/08/21 09:15:37;;;;;;;5.05;2.67;;;;;;;;;;5022893;28;20057;-60
2022/08/21 09:18:22;;;;;;;4.60;2.53;;;;;;;;;;5040377;28;20049;-60
2022/08/21 09:20:49;;;;;;;5.00;2.40;;;;;;;;;;5025765;28;20063;-57
2022/08/21 09:23:19;;;;;;;4.63;2.90;;;;;;;;;;5025197;28;20042;-58
2022/08/21 09:26:08;;;;;;;5.03;2.47;;;;;;;;;;5021579;28;20719;-58
2022/08/21 09:28:36;;;;;;;4.65;2.50;;;;;;;;;;5015109;28;21258;-58
2022/08/21 09:31:12;;;;;;;6.53;2.65;;;;;;;;;;5020819;28;20063;-58
2022/08/21 09:33:39;;;;;;;5.55;3.00;;;;;;;;;;5020214;28;20060;-58
2022/08/21 09:36:06;;;;;;;5.82;2.80;;;;;;;;;;5021269;28;20081;-58
2022/08/21 09:38:34;;;;;;;4.90;2.85;;;;;;;;;;5022169;28;20116;-60
2022/08/21 09:41:03;;;;;;;5.88;2.55;;;;;;;;;;5040135;28;20037;-60
2022/08/21 09:43:30;;;;;;;4.47;2.45;;;;;;;;;;5040783;28;20793;-59
2022/08/21 09:46:05;;;;;;;4.70;2.67;;;;;;;;;;5041954;28;20033;-60
2022/08/21 09:48:39;;;;;;;5.00;2.80;;;;;;;;;;5038915;28;20033;-60
2022/08/21 09:51:11;;;;;;;5.50;2.92;;;;;;;;;;5041786;28;20045;-60
2022/08/21 09:53:42;;;;;;;4.53;2.58;;;;;;;;;;5042127;28;20041;-60
2022/08/21 09:59:13;;;;;;;5.25;2.50;;;;;;;;;;5020605;28;20043;-65
2022/08/21 10:01:44;;;;;;;4.88;2.60;;;;;;;;;;5020645;28;20061;-65
2022/08/21 10:04:11;;;;;;;4.20;2.55;;;;;;;;;;5021631;28;20774;-66
2022/08/21 10:06:38;;;;;;;4.95;2.40;;;;;;;;;;5020318;28;20385;-65
2022/08/21 10:09:09;;;;;;;4.50;2.30;;;;;;;;;;5035375;28;20045;-66
2022/08/21 10:11:37;;;;;;;5.13;2.25;;;;;;;;;;5021062;28;20502;-66
2022/08/21 10:14:16;;;;;;;4.35;2.60;;;;;;;;;;5021571;28;20037;-65
2022/08/21 10:17:01;;;;;;;5.05;2.42;;;;;;;;;;5021744;28;20060;-66
2022/08/21 10:19:31;;;;;;;4.10;2.30;;;;;;;;;;5021820;28;20092;-65
2022/08/21 10:22:00;;;;;;;5.82;2.60;;;;;;;;;;5020340;28;20057;-66
2022/08/21 10:24:30;;;;;;;4.97;2.28;;;;;;;;;;5035545;28;20049;-66
2022/08/21 10:26:56;;;;;;;5.40;2.75;;;;;;;;;;5021710;28;20119;-66
2022/08/21 10:29:43;;;;;;;5.30;2.45;;;;;;;;;;5031961;28;20121;-65
2022/08/21 10:32:33;;;;;;;5.22;2.25;;;;;;;;;;5023298;28;20378;-66
2022/08/21 10:35:03;;;;;;;5.32;2.67;;;;;;;;;;5013979;28;20042;-64
2022/08/21 10:37:38;;;;;;;4.72;2.53;;;;;;;;;;5038523;28;20059;-65
2022/08/21 10:40:08;;;;;;;4.93;2.47;;;;;;;;;;5043285;28;20116;-65
2022/08/21 10:42:39;;;;;;;5.22;2.28;;;;;;;;;;5041532;28;20080;-65
2022/08/21 10:45:12;;;;;;;5.20;2.60;;;;;;;;;;5042699;28;20055;-66
2022/08/21 10:47:45;;;;;;;6.20;2.30;;;;;;;;;;5045438;28;20107;-65
2022/08/21 10:50:11;;;;;;;;;;;;;;;;;;5045591;28;20055;-64
2022/08/21 10:52:41;;;;;;;4.47;2.55;;;;;;;;;;5040608;28;19921;-64
2022/08/21 10:55:10;;;;;;;5.55;2.70;;;;;;;;;;5042014;28;20120;-64
2022/08/21 10:57:40;;;;;;;4.45;2.38;;;;;;;;;;5039742;28;20059;-64
2022/08/21 11:00:11;;;;;;;5.18;2.40;;;;;;;;;;5057113;28;20658;-64
2022/08/21 11:02:40;;;;;;;4.85;2.55;;;;;;;;;;5046303;28;20120;-64
2022/08/21 11:05:17;;;;;;;6.10;2.50;;;;;;;;;;5040776;28;20049;-65
2022/08/21 11:08:16;;;;;;;4.82;2.50;;;;;;;;;;5040380;28;20037;-64
2022/08/21 11:10:46;;;;;;;4.60;2.45;;;;;;;;;;5014167;28;20036;-64
2022/08/21 11:13:20;;;;;;;4.22;2.03;;;;;;;;;;5040628;28;20116;-63
2022/08/21 11:15:54;;;;;;;4.28;2.40;;;;;;;;;;5039943;28;20061;-63
2022/08/21 11:18:40;;;;;;;4.75;2.42;;;;;;;;;;5040045;28;20056;-64
2022/08/21 11:21:10;;;;;;;4.78;2.40;;;;;;;;;;5041495;28;20472;-65
2022/08/21 11:23:44;;;;;;;4.30;2.38;;;;;;;;;;5038767;28;20124;-64
2022/08/21 11:26:31;;;;;;;5.57;2.80;;;;;;;;;;5040038;28;20109;-63
2022/08/21 11:29:10;;;;;;;5.70;2.78;;;;;;;;;;5035162;28;20058;-65
2022/08/21 11:32:03;;;;;;;5.70;2.53;;;;;;;;;;5040148;28;20199;-66
2022/08/21 11:34:40;;;;;;;4.75;2.75;;;;;;;;;;5023775;28;20045;-66
2022/08/21 11:37:18;;;;;;;4.22;2.30;;;;;;;;;;5041892;28;20084;-65
2022/08/21 11:39:51;;;;;;;4.25;2.28;;;;;;;;;;5040507;28;20640;-65
2022/08/21 11:42:17;;;;;;;;;;;;;;;;;;5041701;28;20041;-65
2022/08/21 11:44:47;;;;;;;4.38;2.17;;;;;;;;;;5040938;28;19970;-64
2022/08/21 11:47:36;;;;;;;4.38;2.20;;;;;;;;;;5043665;28;20635;-64
2022/08/21 11:50:11;;;;;;;4.00;2.08;;;;;;;;;;5020144;28;20154;-64
2022/08/21 11:52:53;;;;;;;4.70;2.17;;;;;;;;;;5019123;28;20109;-64
2022/08/21 11:55:24;;;;;;;4.07;2.20;;;;;;;;;;5019522;28;20084;-65
2022/08/21 11:57:58;;;;;;;5.15;2.55;;;;;;;;;;5022554;28;20037;-65
2022/08/21 12:00:31;;;;;;;4.47;2.60;;;;;;;;;;5022796;28;20041;-64
2022/08/21 12:03:00;;;;;;;4.50;2.45;;;;;;;;;;5041237;28;20045;-64
2022/08/21 12:05:40;;;;;;;4.10;2.30;;;;;;;;;;5046157;28;20048;-64
2022/08/21 12:08:10;;;;;;;4.57;2.55;;;;;;;;;;5048808;28;20588;-64
2022/08/21 12:10:39;;;;;;;5.55;2.75;;;;;;;;;;5042540;28;20132;-65
2022/08/21 12:13:22;;;;;;;5.00;2.67;;;;;;;;;;5044206;28;20029;-64
2022/08/21 12:15:50;;;;;;;4.47;2.33;;;;;;;;;;5033256;28;20195;-64
2022/08/21 12:18:24;;;;;;;5.05;2.45;;;;;;;;;;5042483;28;20072;-64
2022/08/21 12:21:02;;;;;;;4.72;2.75;;;;;;;;;;5039949;28;20111;-64
2022/08/21 12:23:45;;;;;;;4.43;2.42;;;;;;;;;;5036067;28;20053;-64
2022/08/21 12:26:24;;;;;;;4.93;2.55;;;;;;;;;;5044151;28;20063;-64
2022/08/21 12:28:51;;;;;;;4.03;2.30;;;;;;;;;;5045167;28;20088;-65
2022/08/21 12:31:18;;;;;;;4.47;2.53;;;;;;;;;;5045246;28;20413;-65
2022/08/21 12:33:50;;;;;;;5.35;2.58;;;;;;;;;;5043737;28;20040;-67
2022/08/21 12:36:21;;;;;;;5.13;2.20;;;;;;;;;;5045104;28;20048;-64
2022/08/21 12:38:54;;;;;;;4.90;2.65;;;;;;;;;;5042702;28;21777;-65
2022/08/21 12:41:22;;;;;;;6.20;2.35;;;;;;;;;;5043723;28;20051;-65
2022/08/21 12:43:53;;;;;;;4.45;2.40;;;;;;;;;;5044622;28;20120;-64
2022/08/21 12:46:28;;;;;;;5.00;2.45;;;;;;;;;;5042825;28;20037;-64
2022/08/21 12:48:58;;;;;;;6.18;2.85;;;;;;;;;;5043976;28;20098;-64
2022/08/21 12:51:29;;;;;;;5.28;2.47;;;;;;;;;;5054487;28;20046;-63
2022/08/21 12:53:57;;;;;;;4.75;2.63;;;;;;;;;;5043736;28;20044;-64
2022/08/21 12:56:28;;;;;;;5.18;2.80;;;;;;;;;;5043222;28;20103;-64
2022/08/21 12:59:03;;;;;;;5.07;2.53;;;;;;;;;;5045346;28;20041;-65
2022/08/21 13:01:33;;;;;;;7.60;2.55;;;;;;;;;;5041858;28;20505;-63
2022/08/21 13:04:02;;;;;;;5.13;2.65;;;;;;;;;;5043639;28;20858;-64
2022/08/21 13:06:30;;;;;;;5.57;2.22;;;;;;;;;;5041392;28;20044;-64
2022/08/21 13:08:59;;;;;;;4.40;2.30;;;;;;;;;;5042742;28;20075;-64
2022/08/21 13:11:26;;;;;;;4.35;2.22;;;;;;;;;;5041965;28;20087;-64
2022/08/21 13:13:54;;;;;;;5.03;2.58;;;;;;;;;;5043232;28;20037;-64
2022/08/21 13:16:27;;;;;;;4.88;2.47;;;;;;;;;;5038839;28;20448;-63
2022/08/21 13:18:56;;;;;;;4.80;2.50;;;;;;;;;;5052825;28;20398;-65
2022/08/21 13:21:27;;;;;;;5.22;2.85;;;;;;;;;;5039910;28;20040;-65
2022/08/21 13:23:54;;;;;;;5.97;2.55;;;;;;;;;;5041750;28;20451;-65
2022/08/21 13:26:21;;;;;;;4.57;2.53;;;;;;;;;;5023543;28;20057;-65
2022/08/21 13:28:50;;;;;;;5.22;2.83;;;;;;;;;;5021553;28;20800;-65
2022/08/21 13:31:18;;;;;;;4.70;2.38;;;;;;;;;;5024391;28;20114;-65
2022/08/21 13:33:45;;;;;;;4.97;2.47;;;;;;;;;;5022773;28;20046;-65
2022/08/21 13:36:14;;;;;;;5.00;2.65;;;;;;;;;;5022418;28;20074;-65
2022/08/21 13:38:42;;;;;;;4.97;2.60;;;;;;;;;;5022074;28;20040;-65
2022/08/21 13:41:20;;;;;;;4.03;2.15;;;;;;;;;;5023361;28;20085;-65
2022/08/21 13:43:50;;;;;;;5.28;2.58;;;;;;;;;;5023367;28;20101;-65
2022/08/21 13:46:17;;;;;;;4.63;2.50;;;;;;;;;;5022435;28;20037;-64
2022/08/21 13:48:44;;;;;;;5.45;2.47;;;;;;;;;;5022098;28;20060;-66
2022/08/21 13:51:11;;;;;;;4.97;2.60;;;;;;;;;;5023138;28;20041;-65
2022/08/21 13:53:46;;;;;;;4.63;2.50;;;;;;;;;;5023045;28;20407;-65
2022/08/21 13:56:28;;;;;;;5.07;2.53;;;;;;;;;;5022569;28;20057;-64
2022/08/21 13:58:55;;;;;;;4.72;2.67;;;;;;;;;;5022514;28;20045;-65
2022/08/21 14:01:44;;;;;;;4.78;2.40;;;;;;;;;;5023321;28;20529;-64
2022/08/21 14:04:11;;;;;;;5.07;2.45;;;;;;;;;;5024116;28;20499;-65
2022/08/21 14:06:39;;;;;;;6.15;2.28;;;;;;;;;;5023881;28;20776;-64
2022/08/21 14:09:12;;;;;;;4.60;2.50;;;;;;;;;;5023632;28;20072;-66
2022/08/21 14:11:40;;;;;;;5.35;2.72;;;;;;;;;;5022205;28;20033;-66
2022/08/21 14:14:20;;;;;;;5.78;2.47;;;;;;;;;;5023311;28;20041;-66
2022/08/21 14:16:53;;;;;;;5.00;2.67;;;;;;;;;;5020043;28;20053;-66
2022/08/21 14:19:25;;;;;;;6.45;2.20;;;;;;;;;;5021013;28;20041;-65
2022/08/21 14:21:54;;;;;;;4.95;2.60;;;;;;;;;;5035307;28;20041;-65
2022/08/21 14:24:23;;;;;;;5.18;2.90;;;;;;;;;;5033833;28;20069;-65
2022/08/21 14:26:52;;;;;;;5.85;2.60;;;;;;;;;;5034519;28;20865;-65
2022/08/21 14:29:20;;;;;;;4.40;2.40;;;;;;;;;;5021766;28;20051;-65
2022/08/21 14:31:51;;;;;;;5.00;2.63;;;;;;;;;;5021030;28;20037;-65
2022/08/21 14:34:18;;;;;;;4.93;2.70;;;;;;;;;;5021177;28;20107;-65
2022/08/21 14:36:45;;;;;;;7.00;2.67;;;;;;;;;;5019279;28;20237;-66
2022/08/21 14:39:11;;;;;;;5.57;2.85;;;;;;;;;;5022924;28;20036;-67
2022/08/21 14:41:38;;;;;;;5.00;2.47;;;;;;;;;;5020081;28;20564;-67
2022/08/21 14:44:06;;;;;;;4.68;2.70;;;;;;;;;;5022223;28;20140;-67
2022/08/21 14:46:35;;;;;;;4.55;2.60;;;;;;;;;;5020706;28;20099;-66
2022/08/21 14:49:02;;;;;;;5.32;3.00;;;;;;;;;;5024111;28;20060;-66
2022/08/21 14:51:29;;;;;;;5.30;2.50;;;;;;;;;;5023956;28;20042;-66
2022/08/21 14:53:56;;;;;;;4.55;2.50;;;;;;;;;;5025456;28;20088;-67
2022/08/21 14:56:22;;;;;;;4.00;2.33;;;;;;;;;;5020070;28;20094;-66